« Back
NWS Peachtree City, Ga » Text Product » CSG Terminal Aerodrome Forecast


Printer-friendly Version
Current Version              Previous Versions:   1  2  3  4  5  6  7  8  9  

Terminal Aerodrome Forecast

504
FTUS42 KFFC 211729
TAFCSG
TAF
KCSG 211729Z 2118/2218 01004KT P6SM SKC
     FM220000 00000KT P6SM FEW250
     FM221000 08005KT P6SM BKN015
     FM221500 10008KT P6SM BKN025=



USA.gov is the U.S. government's official web portal to all federal, state and local government web resources and services.